Lafayette Regional Airport
KLFT : now visible

Airfield :











YOU CAN JOIN US ON...

 
LOGIN :

Register | Disclaimer

   EN    FR    IT 

 









Legend :    VFR   Marginal VFR   IFR   Intensive IFR   Very Intensive IFR
Visi :
Ceiling :
>= 8 km
>= 3000ft
5 to 8 km
1000 to 3000 ft
1500m to 5 km
500 to 1000 ft
800 to 1500m
200 to 500 ft
< 800m
< 200 ft
Symbols :   Thunderstorms  Fog  Heavy snow  Heavy precipitations  Wind > 20 kt






- Airport Elevation : 42 ft
- IATA code : LFT


KLFT - Lafayette Regional

CURRENT METAR :
  • 080453Z AUTO 21006KT 10SM OVC010 23/22 A2995 RMK AO2 SLP143 T02330217

EXPIRED METARs :
  • 080353Z AUTO 20005KT 9SM OVC008 23/22 A2996 RMK AO2 CIG 007V012 SLP145 T02330217
  • 080253Z 22004KT 10SM BKN009 24/22 A2997 RMK AO2 SLP146 T02390217 51013
  • 080210Z 20006KT 10SM BKN011 24/22 A2995 RMK AO2 T02440217

TAF KLFT
Valid from the 08 at 02:00 until the 09 at 00:00 UTC


080217Z 0802/0824 20008KT P6SM SCT006 OVC011
FM080600 21006KT 5SM BR SCT003 OVC006
FM081500 23008KT P6SM OVC015
FM081800 23012KT P6SM SCT050 BKN120



MET'MAP, your aeronautical weather chart ! - Copyright ORBIFLY December 2007 - Disclaimer

ORBIFLY MET'MAP TEAM :

Programming & Development : Alexandra Zaïnal
Concept & original design : Baudouin d'Aumeries
Assistance for programming : Marc-Olivier Méhu
Technical & hardware support : Manuel Goepfert

Contact : metmap@orbifly.com




SOURCES & CREDITS :

   NOAA       Earth
Advisory